Wednesday, January 17, 2018, 9:36 AM EST
Back to Local

KGON, Groton/new London Airport

Location: Groton, CT, United States Lat: 41.333
Local Time: 9:36 AM EST (14:36 GMT) Lon: -72.05
Time Zone: US/Eastern Elev: 9 ft

Show me the last for .
Show Decoded

2018-01-17 08:56 METAR KGON 171356Z 05006KT 10SM -RA BKN006 BKN029 OVC050 02/01 A3025 RMK AO2
                 SLP244 P0000 T00170006 =
2018-01-17 08:44 METAR KGON 171344Z 07007KT 8SM -RA SCT006 BKN026 OVC055 02/01 A3025 RMK AO2
                 P0000 T00170006 =
2018-01-17 07:56 METAR KGON 171256Z 04004KT 6SM -RA BR BKN006 OVC025 01/01 A3026 RMK AO2 SLP248
                 P0000 T00110006 =
2018-01-17 07:41 METAR KGON 171241Z 04004KT 5SM -RA BR SCT006 BKN023 OVC028 01/00 A3026 RMK AO2
                 P0000 T00110000 =
2018-01-17 06:56 METAR KGON 171156Z 06005KT 10SM -RA BKN006 OVC032 01/00 A3027 RMK AO2 SLP249
                 P0000 60001 70001 T00110000 10033 20011 56015 =
2018-01-17 05:56 METAR KGON 171056Z AUTO 03005KT 8SM -RA OVC006 01/00 A3027 RMK AO2
                 RAE27B46SNB27E46 SLP250 P0001 T00110000 =
2018-01-17 04:56 METAR KGON 170956Z AUTO 07009KT 4SM -RA BR OVC006 02/01 A3028 RMK AO2 RAB31
                 SLP252 P0000 T00170006 =
2018-01-17 03:56 METAR KGON 170856Z AUTO 10007KT 10SM OVC007 03/01 A3031 RMK AO2 SLP264 60000
                 T00280011 56012 =
2018-01-17 02:56 METAR KGON 170756Z AUTO 11010KT 9SM OVC009 03/01 A3032 RMK AO2 RAB15E39 CIG
                 007V013 SLP267 P0000 T00280011 =
2018-01-17 02:44 METAR KGON 170744Z AUTO 12013KT 10SM OVC009 03/01 A3032 RMK AO2 RAB15E39 CIG
                 008V013 P0000 T00280011 =
2018-01-17 01:56 METAR KGON 170656Z AUTO 12010KT 10SM OVC011 03/01 A3033 RMK AO2 SLP270 T00330011
                 =
2018-01-17 00:56 METAR KGON 170556Z AUTO 09008KT 10SM OVC013 03/01 A3035 RMK AO2 RAE10 SLP276
                 P0000 60000 T00280006 10033 20022 58017 =
2018-01-17 00:37 METAR KGON 170537Z AUTO 10009KT 10SM OVC014 03/00 A3035 RMK AO2 RAE10 P0000
                 T00280000 =
2018-01-16 23:56 METAR KGON 170456Z AUTO 10010KT 10SM -RA BKN026 OVC032 03/M01 A3037 RMK AO2
                 UPB19E28RAB28 SLP284 P0000 T00281006 400331083 =
2018-01-16 22:56 METAR KGON 170356Z AUTO 12009KT 10SM OVC029 03/M01 A3040 RMK AO2 SLP293
                 T00281011 =
2018-01-16 22:53 METAR KGON 170353Z AUTO 12009KT 10SM OVC029 03/M01 A3040 RMK AO2 =
2018-01-16 21:56 METAR KGON 170256Z 13008KT 10SM FEW019 OVC033 03/M01 A3042 RMK AO2 SLP299
                 T00281006 58008 =
2018-01-16 20:56 METAR KGON 170156Z 11006KT 10SM OVC032 03/M02 A3043 RMK AO2 SLP302 T00281017 =
2018-01-16 19:56 METAR KGON 170056Z 12006KT 10SM OVC031 03/M02 A3043 RMK AO2 SLP304 T00281017 =
2018-01-16 19:03 METAR KGON 170003Z 14007KT 10SM OVC033 03/M01 A3044 RMK AO2 T00281011 =
2018-01-16 18:56 METAR KGON 162356Z 14007KT 10SM OVC029 03/M01 A3044 RMK AO2 SLP307 T00281011
                 10033 20017 56002 =
2018-01-16 17:56 METAR KGON 162256Z 09003KT 10SM OVC029 02/M01 A3044 RMK AO2 SLP308 T00221011 =
2018-01-16 17:20 METAR KGON 162220Z 11004KT 10SM BKN026 OVC034 02/M01 A3044 RMK AO2 T00221011 =
2018-01-16 16:56 METAR KGON 162156Z 11005KT 10SM OVC034 02/M01 A3044 RMK AO2 SLP306 T00221011 =
2018-01-16 15:56 METAR KGON 162056Z 13007KT 10SM FEW018 OVC070 03/M02 A3044 RMK AO2 SLP309
                 T00281017 56004 =
2018-01-16 14:56 METAR KGON 161956Z 12005KT 10SM FEW033 OVC070 03/M01 A3045 RMK AO2 SLP309
                 T00331011 =
2018-01-16 13:56 METAR KGON 161856Z 15007KT 10SM OVC075 02/M02 A3045 RMK AO2 SLP311 T00221017 =
2018-01-16 12:56 METAR KGON 161756Z 00000KT 10SM BKN033 OVC080 02/M03 A3046 RMK AO2 SLP313
                 T00171033 10017 21078 58026 =
2018-01-16 11:56 METAR KGON 161656Z 18003KT 10SM OVC034 01/M04 A3049 RMK AO2 SLP324 T00061039 =
2018-01-16 10:56 METAR KGON 161556Z 00000KT 10SM SCT038 OVC095 01/M05 A3051 RMK AO2 SLP332
                 T00061050 =
2018-01-16 09:56 METAR KGON 161456Z 00000KT 10SM SCT015 OVC100 M01/M07 A3053 RMK AO2 SLP339
                 T10061067 50005 =

Support USWX by starting your Amazon purchase here.